sensor_id;sensor_type;location;lat;lon;timestamp;temperature;humidity
56076;DHT22;41951;49.022;12.066;2022-09-03T00:00:46;13.80;99.90
56076;DHT22;41951;49.022;12.066;2022-09-03T00:03:22;13.80;99.90
56076;DHT22;41951;49.022;12.066;2022-09-03T00:05:55;13.70;99.90
56076;DHT22;41951;49.022;12.066;2022-09-03T00:08:33;13.60;99.90
56076;DHT22;41951;49.022;12.066;2022-09-03T00:11:24;13.50;99.90
56076;DHT22;41951;49.022;12.066;2022-09-03T00:14:08;13.60;99.90
56076;DHT22;41951;49.022;12.066;2022-09-03T00:16:55;13.70;99.90
56076;DHT22;41951;49.022;12.066;2022-09-03T00:19:26;13.70;99.90
56076;DHT22;41951;49.022;12.066;2022-09-03T00:21:59;13.70;99.90
56076;DHT22;41951;49.022;12.066;2022-09-03T00:24:29;13.50;99.90
56076;DHT22;41951;49.022;12.066;2022-09-03T00:27:00;13.50;99.90
56076;DHT22;41951;49.022;12.066;2022-09-03T00:29:34;13.30;99.90
56076;DHT22;41951;49.022;12.066;2022-09-03T00:32:12;13.20;99.90
56076;DHT22;41951;49.022;12.066;2022-09-03T00:34:42;13.10;99.90
56076;DHT22;41951;49.022;12.066;2022-09-03T00:37:09;13.00;99.90
56076;DHT22;41951;49.022;12.066;2022-09-03T00:39:36;12.90;99.90
56076;DHT22;41951;49.022;12.066;2022-09-03T01:01:21;12.80;99.90
56076;DHT22;41951;49.022;12.066;2022-09-03T01:05:04;12.80;99.90
56076;DHT22;41951;49.022;12.066;2022-09-03T01:07:35;12.80;99.90
56076;DHT22;41951;49.022;12.066;2022-09-03T01:13:00;12.70;99.90
56076;DHT22;41951;49.022;12.066;2022-09-03T01:18:06;12.50;99.90
56076;DHT22;41951;49.022;12.066;2022-09-03T01:20:55;12.60;99.90
56076;DHT22;41951;49.022;12.066;2022-09-03T01:23:27;12.60;99.90
56076;DHT22;41951;49.022;12.066;2022-09-03T01:26:22;12.60;99.90
56076;DHT22;41951;49.022;12.066;2022-09-03T01:31:49;12.60;99.90
56076;DHT22;41951;49.022;12.066;2022-09-03T01:34:37;12.50;99.90
56076;DHT22;41951;49.022;12.066;2022-09-03T01:37:14;12.50;99.90
56076;DHT22;41951;49.022;12.066;2022-09-03T01:40:06;12.60;99.90
56076;DHT22;41951;49.022;12.066;2022-09-03T01:45:30;12.50;99.90
56076;DHT22;41951;49.022;12.066;2022-09-03T01:51:17;12.40;99.90
56076;DHT22;41951;49.022;12.066;2022-09-03T01:59:41;12.20;99.90
56076;DHT22;41951;49.022;12.066;2022-09-03T02:02:21;12.30;99.90
56076;DHT22;41951;49.022;12.066;2022-09-03T02:05:07;12.30;99.90
56076;DHT22;41951;49.022;12.066;2022-09-03T02:07:39;12.40;99.90
56076;DHT22;41951;49.022;12.066;2022-09-03T02:10:08;12.40;99.90
56076;DHT22;41951;49.022;12.066;2022-09-03T02:12:35;12.30;99.90
56076;DHT22;41951;49.022;12.066;2022-09-03T02:15:10;12.30;99.90
56076;DHT22;41951;49.022;12.066;2022-09-03T02:17:37;12.20;99.90
56076;DHT22;41951;49.022;12.066;2022-09-03T02:20:05;12.20;99.90
56076;DHT22;41951;49.022;12.066;2022-09-03T02:22:32;12.20;99.90
56076;DHT22;41951;49.022;12.066;2022-09-03T02:24:59;12.10;99.90
56076;DHT22;41951;49.022;12.066;2022-09-03T02:27:25;12.10;99.90
56076;DHT22;41951;49.022;12.066;2022-09-03T02:29:51;12.00;99.90
56076;DHT22;41951;49.022;12.066;2022-09-03T02:32:17;12.10;99.90
56076;DHT22;41951;49.022;12.066;2022-09-03T02:34:43;12.10;99.90
56076;DHT22;41951;49.022;12.066;2022-09-03T02:37:13;12.10;99.90
56076;DHT22;41951;49.022;12.066;2022-09-03T02:39:39;12.10;99.90
56076;DHT22;41951;49.022;12.066;2022-09-03T02:42:05;12.10;99.90
56076;DHT22;41951;49.022;12.066;2022-09-03T02:44:34;12.10;99.90
56076;DHT22;41951;49.022;12.066;2022-09-03T02:47:04;12.10;99.90
56076;DHT22;41951;49.022;12.066;2022-09-03T02:49:30;12.10;99.90
56076;DHT22;41951;49.022;12.066;2022-09-03T02:52:03;12.10;99.90
56076;DHT22;41951;49.022;12.066;2022-09-03T02:54:37;12.10;99.90
56076;DHT22;41951;49.022;12.066;2022-09-03T02:57:07;12.00;99.90
56076;DHT22;41951;49.022;12.066;2022-09-03T02:59:33;12.10;99.90
56076;DHT22;41951;49.022;12.066;2022-09-03T03:02:00;12.00;99.90
56076;DHT22;41951;49.022;12.066;2022-09-03T03:04:25;12.00;99.90
56076;DHT22;41951;49.022;12.066;2022-09-03T03:06:51;12.00;99.90
56076;DHT22;41951;49.022;12.066;2022-09-03T03:09:17;12.10;99.90
56076;DHT22;41951;49.022;12.066;2022-09-03T03:11:43;12.10;99.90
56076;DHT22;41951;49.022;12.066;2022-09-03T03:14:08;12.10;99.90
56076;DHT22;41951;49.022;12.066;2022-09-03T03:16:34;12.10;99.90
56076;DHT22;41951;49.022;12.066;2022-09-03T03:19:00;12.10;99.90
56076;DHT22;41951;49.022;12.066;2022-09-03T03:21:26;12.10;99.90
56076;DHT22;41951;49.022;12.066;2022-09-03T03:23:52;12.20;99.90
56076;DHT22;41951;49.022;12.066;2022-09-03T03:26:19;12.20;99.90
56076;DHT22;41951;49.022;12.066;2022-09-03T03:28:47;12.20;99.90
56076;DHT22;41951;49.022;12.066;2022-09-03T03:31:20;12.10;99.90
56076;DHT22;41951;49.022;12.066;2022-09-03T03:34:04;12.10;99.90
56076;DHT22;41951;49.022;12.066;2022-09-03T03:36:32;12.10;99.90
56076;DHT22;41951;49.022;12.066;2022-09-03T03:38:58;12.20;99.90
56076;DHT22;41951;49.022;12.066;2022-09-03T03:41:29;12.30;99.90
56076;DHT22;41951;49.022;12.066;2022-09-03T03:43:57;12.40;99.90
56076;DHT22;41951;49.022;12.066;2022-09-03T03:46:24;12.40;99.90
56076;DHT22;41951;49.022;12.066;2022-09-03T03:48:52;12.40;99.90
56076;DHT22;41951;49.022;12.066;2022-09-03T03:51:18;12.30;99.90
56076;DHT22;41951;49.022;12.066;2022-09-03T03:53:44;12.30;99.90
56076;DHT22;41951;49.022;12.066;2022-09-03T03:56:13;12.30;99.90
56076;DHT22;41951;49.022;12.066;2022-09-03T03:58:39;12.20;99.90
56076;DHT22;41951;49.022;12.066;2022-09-03T04:01:09;12.20;99.90
56076;DHT22;41951;49.022;12.066;2022-09-03T04:03:35;12.20;99.90
56076;DHT22;41951;49.022;12.066;2022-09-03T04:06:02;12.20;99.90
56076;DHT22;41951;49.022;12.066;2022-09-03T04:08:29;12.20;99.90
56076;DHT22;41951;49.022;12.066;2022-09-03T04:10:59;12.10;99.90
56076;DHT22;41951;49.022;12.066;2022-09-03T04:13:39;12.10;99.90
56076;DHT22;41951;49.022;12.066;2022-09-03T04:16:10;12.10;99.90
56076;DHT22;41951;49.022;12.066;2022-09-03T04:18:36;12.10;99.90
56076;DHT22;41951;49.022;12.066;2022-09-03T04:21:15;12.10;99.90
56076;DHT22;41951;49.022;12.066;2022-09-03T04:23:43;12.00;99.90
56076;DHT22;41951;49.022;12.066;2022-09-03T04:26:12;12.00;99.90
56076;DHT22;41951;49.022;12.066;2022-09-03T04:28:38;11.90;99.90
56076;DHT22;41951;49.022;12.066;2022-09-03T04:31:06;11.90;99.90
56076;DHT22;41951;49.022;12.066;2022-09-03T04:33:32;11.90;99.90
56076;DHT22;41951;49.022;12.066;2022-09-03T04:36:13;11.80;99.90
56076;DHT22;41951;49.022;12.066;2022-09-03T04:38:41;11.80;99.90
56076;DHT22;41951;49.022;12.066;2022-09-03T04:41:08;11.70;99.90
56076;DHT22;41951;49.022;12.066;2022-09-03T04:43:35;11.70;99.90
56076;DHT22;41951;49.022;12.066;2022-09-03T04:46:03;11.70;99.90
56076;DHT22;41951;49.022;12.066;2022-09-03T04:48:29;11.70;99.90
56076;DHT22;41951;49.022;12.066;2022-09-03T04:51:05;11.80;99.90
56076;DHT22;41951;49.022;12.066;2022-09-03T04:53:39;11.80;99.90
56076;DHT22;41951;49.022;12.066;2022-09-03T04:56:16;11.80;99.90
56076;DHT22;41951;49.022;12.066;2022-09-03T04:58:43;11.90;99.90
56076;DHT22;41951;49.022;12.066;2022-09-03T05:01:11;11.80;99.90
56076;DHT22;41951;49.022;12.066;2022-09-03T05:03:37;11.90;99.90
56076;DHT22;41951;49.022;12.066;2022-09-03T05:06:03;12.00;99.90
56076;DHT22;41951;49.022;12.066;2022-09-03T05:08:30;11.90;99.90
56076;DHT22;41951;49.022;12.066;2022-09-03T05:10:58;11.90;99.90
56076;DHT22;41951;49.022;12.066;2022-09-03T05:13:24;11.90;99.90
56076;DHT22;41951;49.022;12.066;2022-09-03T05:15:50;12.00;99.90
56076;DHT22;41951;49.022;12.066;2022-09-03T05:18:15;12.10;99.90
56076;DHT22;41951;49.022;12.066;2022-09-03T05:20:41;12.20;99.90
56076;DHT22;41951;49.022;12.066;2022-09-03T05:23:06;12.40;99.90
56076;DHT22;41951;49.022;12.066;2022-09-03T05:25:32;12.50;99.90
56076;DHT22;41951;49.022;12.066;2022-09-03T05:27:58;12.60;99.90
56076;DHT22;41951;49.022;12.066;2022-09-03T05:30:24;12.60;99.90
56076;DHT22;41951;49.022;12.066;2022-09-03T05:32:50;12.70;99.90
56076;DHT22;41951;49.022;12.066;2022-09-03T05:35:16;12.80;99.90
56076;DHT22;41951;49.022;12.066;2022-09-03T05:37:43;12.90;99.90
56076;DHT22;41951;49.022;12.066;2022-09-03T05:40:08;13.00;99.90
56076;DHT22;41951;49.022;12.066;2022-09-03T05:42:38;13.10;99.90
56076;DHT22;41951;49.022;12.066;2022-09-03T05:45:08;13.20;99.90
56076;DHT22;41951;49.022;12.066;2022-09-03T05:47:37;13.30;99.90
56076;DHT22;41951;49.022;12.066;2022-09-03T05:50:07;13.40;99.90
56076;DHT22;41951;49.022;12.066;2022-09-03T05:52:35;13.40;99.90
56076;DHT22;41951;49.022;12.066;2022-09-03T05:55:01;13.40;99.90
56076;DHT22;41951;49.022;12.066;2022-09-03T05:57:26;13.50;99.90
56076;DHT22;41951;49.022;12.066;2022-09-03T05:59:53;13.50;99.90
56076;DHT22;41951;49.022;12.066;2022-09-03T06:02:19;13.50;99.90
56076;DHT22;41951;49.022;12.066;2022-09-03T06:04:44;13.60;99.90
56076;DHT22;41951;49.022;12.066;2022-09-03T06:07:10;13.70;99.90
56076;DHT22;41951;49.022;12.066;2022-09-03T06:09:37;13.80;99.90
56076;DHT22;41951;49.022;12.066;2022-09-03T06:12:02;13.90;99.90
56076;DHT22;41951;49.022;12.066;2022-09-03T06:14:28;13.90;99.90
56076;DHT22;41951;49.022;12.066;2022-09-03T06:16:54;14.00;99.90
56076;DHT22;41951;49.022;12.066;2022-09-03T06:19:21;14.00;99.90
56076;DHT22;41951;49.022;12.066;2022-09-03T06:21:47;14.00;99.90
56076;DHT22;41951;49.022;12.066;2022-09-03T06:24:18;13.90;99.90
56076;DHT22;41951;49.022;12.066;2022-09-03T06:26:44;14.00;99.90
56076;DHT22;41951;49.022;12.066;2022-09-03T06:29:11;14.00;99.90
56076;DHT22;41951;49.022;12.066;2022-09-03T06:31:37;14.00;99.90
56076;DHT22;41951;49.022;12.066;2022-09-03T06:34:04;14.00;99.90
56076;DHT22;41951;49.022;12.066;2022-09-03T06:36:30;14.10;99.90
56076;DHT22;41951;49.022;12.066;2022-09-03T06:38:56;14.10;99.90
56076;DHT22;41951;49.022;12.066;2022-09-03T06:41:25;14.20;99.90
56076;DHT22;41951;49.022;12.066;2022-09-03T06:43:56;14.30;99.90
56076;DHT22;41951;49.022;12.066;2022-09-03T06:46:30;14.40;99.90
56076;DHT22;41951;49.022;12.066;2022-09-03T06:48:56;14.60;99.90
56076;DHT22;41951;49.022;12.066;2022-09-03T06:51:24;14.60;99.90
56076;DHT22;41951;49.022;12.066;2022-09-03T06:53:58;14.60;99.90
56076;DHT22;41951;49.022;12.066;2022-09-03T06:56:24;14.70;99.90
56076;DHT22;41951;49.022;12.066;2022-09-03T06:58:55;14.80;99.90
56076;DHT22;41951;49.022;12.066;2022-09-03T07:01:26;14.80;99.90
56076;DHT22;41951;49.022;12.066;2022-09-03T07:03:54;14.80;99.90
56076;DHT22;41951;49.022;12.066;2022-09-03T07:06:21;14.90;99.90
56076;DHT22;41951;49.022;12.066;2022-09-03T07:08:47;14.90;99.90
56076;DHT22;41951;49.022;12.066;2022-09-03T07:11:15;15.00;99.90
56076;DHT22;41951;49.022;12.066;2022-09-03T07:13:43;16.80;99.90
56076;DHT22;41951;49.022;12.066;2022-09-03T07:16:12;15.40;99.90
56076;DHT22;41951;49.022;12.066;2022-09-03T07:18:38;15.60;99.90
56076;DHT22;41951;49.022;12.066;2022-09-03T07:21:09;15.70;99.90
56076;DHT22;41951;49.022;12.066;2022-09-03T07:23:37;15.80;99.90
56076;DHT22;41951;49.022;12.066;2022-09-03T07:26:09;15.80;99.90
56076;DHT22;41951;49.022;12.066;2022-09-03T07:28:36;15.90;99.90
56076;DHT22;41951;49.022;12.066;2022-09-03T07:31:08;16.00;99.90
56076;DHT22;41951;49.022;12.066;2022-09-03T07:33:36;16.10;99.90
56076;DHT22;41951;49.022;12.066;2022-09-03T07:36:08;16.20;99.90
56076;DHT22;41951;49.022;12.066;2022-09-03T07:38:35;16.40;99.90
56076;DHT22;41951;49.022;12.066;2022-09-03T07:41:03;16.50;99.90
56076;DHT22;41951;49.022;12.066;2022-09-03T07:43:34;16.40;99.90
56076;DHT22;41951;49.022;12.066;2022-09-03T07:46:00;16.50;99.90
56076;DHT22;41951;49.022;12.066;2022-09-03T07:48:25;16.60;99.90
56076;DHT22;41951;49.022;12.066;2022-09-03T07:50:51;16.80;99.90
56076;DHT22;41951;49.022;12.066;2022-09-03T07:53:18;16.90;99.90
56076;DHT22;41951;49.022;12.066;2022-09-03T07:55:47;17.00;99.90
56076;DHT22;41951;49.022;12.066;2022-09-03T07:58:13;17.20;99.90
56076;DHT22;41951;49.022;12.066;2022-09-03T08:00:39;17.20;99.90
56076;DHT22;41951;49.022;12.066;2022-09-03T08:03:05;17.40;99.90
56076;DHT22;41951;49.022;12.066;2022-09-03T08:05:34;17.50;99.90
56076;DHT22;41951;49.022;12.066;2022-09-03T08:08:02;17.70;99.90
56076;DHT22;41951;49.022;12.066;2022-09-03T08:10:27;17.80;99.90
56076;DHT22;41951;49.022;12.066;2022-09-03T08:12:56;17.90;99.90
56076;DHT22;41951;49.022;12.066;2022-09-03T08:15:22;17.90;99.90
56076;DHT22;41951;49.022;12.066;2022-09-03T08:17:47;17.90;99.90
56076;DHT22;41951;49.022;12.066;2022-09-03T08:20:14;17.90;99.90
56076;DHT22;41951;49.022;12.066;2022-09-03T08:22:39;17.90;99.90
56076;DHT22;41951;49.022;12.066;2022-09-03T08:25:06;17.90;99.90
56076;DHT22;41951;49.022;12.066;2022-09-03T08:27:32;17.90;99.90
56076;DHT22;41951;49.022;12.066;2022-09-03T08:29:58;18.00;99.90
56076;DHT22;41951;49.022;12.066;2022-09-03T08:32:23;18.00;99.90
56076;DHT22;41951;49.022;12.066;2022-09-03T08:34:49;18.00;99.90
56076;DHT22;41951;49.022;12.066;2022-09-03T08:37:16;18.10;99.90
56076;DHT22;41951;49.022;12.066;2022-09-03T08:39:43;18.10;99.90
56076;DHT22;41951;49.022;12.066;2022-09-03T08:45:06;18.20;99.90
56076;DHT22;41951;49.022;12.066;2022-09-03T08:47:42;18.30;99.90
56076;DHT22;41951;49.022;12.066;2022-09-03T08:50:30;18.40;99.90
56076;DHT22;41951;49.022;12.066;2022-09-03T08:55:34;18.70;99.90
56076;DHT22;41951;49.022;12.066;2022-09-03T08:58:19;18.70;99.90
56076;DHT22;41951;49.022;12.066;2022-09-03T09:03:41;19.00;99.90
56076;DHT22;41951;49.022;12.066;2022-09-03T09:14:19;19.10;99.90
56076;DHT22;41951;49.022;12.066;2022-09-03T09:22:42;19.20;99.90
56076;DHT22;41951;49.022;12.066;2022-09-03T09:25:13;19.30;99.90
56076;DHT22;41951;49.022;12.066;2022-09-03T09:30:18;19.10;99.90
56076;DHT22;41951;49.022;12.066;2022-09-03T09:32:43;19.00;99.90
56076;DHT22;41951;49.022;12.066;2022-09-03T09:35:12;18.80;99.90
56076;DHT22;41951;49.022;12.066;2022-09-03T09:37:53;18.70;99.90
56076;DHT22;41951;49.022;12.066;2022-09-03T09:40:34;18.60;99.90
56076;DHT22;41951;49.022;12.066;2022-09-03T09:43:18;18.60;99.90
56076;DHT22;41951;49.022;12.066;2022-09-03T09:45:48;18.60;99.90
56076;DHT22;41951;49.022;12.066;2022-09-03T09:48:25;18.60;99.90
56076;DHT22;41951;49.022;12.066;2022-09-03T09:51:24;18.60;99.90
56076;DHT22;41951;49.022;12.066;2022-09-03T09:54:25;18.90;99.90
56076;DHT22;41951;49.022;12.066;2022-09-03T09:57:04;19.20;99.90
56076;DHT22;41951;49.022;12.066;2022-09-03T09:59:31;19.30;99.90
56076;DHT22;41951;49.022;12.066;2022-09-03T10:02:14;19.50;99.90
56076;DHT22;41951;49.022;12.066;2022-09-03T10:04:44;19.70;99.90
56076;DHT22;41951;49.022;12.066;2022-09-03T10:07:31;19.70;99.90
56076;DHT22;41951;49.022;12.066;2022-09-03T10:10:06;19.90;99.90
56076;DHT22;41951;49.022;12.066;2022-09-03T10:12:51;20.00;99.90
56076;DHT22;41951;49.022;12.066;2022-09-03T10:21:14;20.20;99.90
56076;DHT22;41951;49.022;12.066;2022-09-03T10:23:55;20.30;99.90
56076;DHT22;41951;49.022;12.066;2022-09-03T10:26:23;20.30;99.90
56076;DHT22;41951;49.022;12.066;2022-09-03T10:29:00;20.40;99.90
56076;DHT22;41951;49.022;12.066;2022-09-03T10:37:23;20.60;99.90
56076;DHT22;41951;49.022;12.066;2022-09-03T10:42:54;20.60;99.90
56076;DHT22;41951;49.022;12.066;2022-09-03T10:45:31;20.70;99.90
56076;DHT22;41951;49.022;12.066;2022-09-03T10:50:43;20.90;99.90
56076;DHT22;41951;49.022;12.066;2022-09-03T11:04:52;21.00;99.90
56076;DHT22;41951;49.022;12.066;2022-09-03T11:07:21;21.10;99.90
56076;DHT22;41951;49.022;12.066;2022-09-03T11:12:47;21.20;99.90
56076;DHT22;41951;49.022;12.066;2022-09-03T11:15:39;21.40;99.90
56076;DHT22;41951;49.022;12.066;2022-09-03T11:18:13;21.50;99.90
56076;DHT22;41951;49.022;12.066;2022-09-03T11:20:40;21.60;99.90
56076;DHT22;41951;49.022;12.066;2022-09-03T11:23:08;21.70;99.90
56076;DHT22;41951;49.022;12.066;2022-09-03T11:26:04;21.80;99.90
56076;DHT22;41951;49.022;12.066;2022-09-03T11:28:42;21.80;99.90
56076;DHT22;41951;49.022;12.066;2022-09-03T11:31:15;21.90;99.90
56076;DHT22;41951;49.022;12.066;2022-09-03T11:34:13;22.00;99.90
56076;DHT22;41951;49.022;12.066;2022-09-03T11:36:39;22.00;99.90
56076;DHT22;41951;49.022;12.066;2022-09-03T11:39:52;22.10;99.90
56076;DHT22;41951;49.022;12.066;2022-09-03T11:42:12;21.90;99.90
56076;DHT22;41951;49.022;12.066;2022-09-03T11:44:45;21.80;99.90
56076;DHT22;41951;49.022;12.066;2022-09-03T11:47:24;21.70;99.90
56076;DHT22;41951;49.022;12.066;2022-09-03T11:50:40;21.70;99.90
56076;DHT22;41951;49.022;12.066;2022-09-03T11:58:25;21.40;99.90
56076;DHT22;41951;49.022;12.066;2022-09-03T12:00:51;21.50;99.90
56076;DHT22;41951;49.022;12.066;2022-09-03T12:03:27;21.50;99.90
56076;DHT22;41951;49.022;12.066;2022-09-03T12:06:20;21.50;99.90
56076;DHT22;41951;49.022;12.066;2022-09-03T12:17:13;21.40;99.90
56076;DHT22;41951;49.022;12.066;2022-09-03T12:19:51;21.30;99.90
56076;DHT22;41951;49.022;12.066;2022-09-03T12:22:19;21.30;99.90
56076;DHT22;41951;49.022;12.066;2022-09-03T12:24:45;21.30;99.90
56076;DHT22;41951;49.022;12.066;2022-09-03T12:27:15;21.30;99.90
56076;DHT22;41951;49.022;12.066;2022-09-03T12:29:57;21.30;99.90
56076;DHT22;41951;49.022;12.066;2022-09-03T12:32:32;21.30;99.90
56076;DHT22;41951;49.022;12.066;2022-09-03T12:35:22;21.30;99.90
56076;DHT22;41951;49.022;12.066;2022-09-03T12:37:51;21.40;99.90
56076;DHT22;41951;49.022;12.066;2022-09-03T12:40:27;21.30;99.90
56076;DHT22;41951;49.022;12.066;2022-09-03T12:42:54;21.50;99.90
56076;DHT22;41951;49.022;12.066;2022-09-03T12:45:22;21.30;99.90
56076;DHT22;41951;49.022;12.066;2022-09-03T12:47:48;21.30;99.90
56076;DHT22;41951;49.022;12.066;2022-09-03T12:50:17;21.30;99.90
56076;DHT22;41951;49.022;12.066;2022-09-03T12:57:56;21.10;99.90
56076;DHT22;41951;49.022;12.066;2022-09-03T13:00:24;21.10;99.90
56076;DHT22;41951;49.022;12.066;2022-09-03T13:03:09;21.00;99.90
56076;DHT22;41951;49.022;12.066;2022-09-03T13:08:22;20.80;99.90
56076;DHT22;41951;49.022;12.066;2022-09-03T13:10:55;20.80;99.90
56076;DHT22;41951;49.022;12.066;2022-09-03T13:13:30;20.70;99.90
56076;DHT22;41951;49.022;12.066;2022-09-03T13:16:40;20.70;99.90
56076;DHT22;41951;49.022;12.066;2022-09-03T13:27:32;20.60;99.90
56076;DHT22;41951;49.022;12.066;2022-09-03T13:30:07;20.60;99.90
56076;DHT22;41951;49.022;12.066;2022-09-03T13:37:53;20.50;99.90
56076;DHT22;41951;49.022;12.066;2022-09-03T13:40:32;20.50;99.90
56076;DHT22;41951;49.022;12.066;2022-09-03T13:43:29;20.50;99.90
56076;DHT22;41951;49.022;12.066;2022-09-03T13:46:05;20.50;99.90
56076;DHT22;41951;49.022;12.066;2022-09-03T13:48:37;20.50;99.90
56076;DHT22;41951;49.022;12.066;2022-09-03T13:54:02;20.50;99.90
56076;DHT22;41951;49.022;12.066;2022-09-03T13:59:32;20.50;99.90
56076;DHT22;41951;49.022;12.066;2022-09-03T14:07:33;20.50;99.90
56076;DHT22;41951;49.022;12.066;2022-09-03T14:12:46;20.40;99.90
56076;DHT22;41951;49.022;12.066;2022-09-03T14:15:21;20.40;99.90
56076;DHT22;41951;49.022;12.066;2022-09-03T14:20:46;20.30;99.90
56076;DHT22;41951;49.022;12.066;2022-09-03T14:26:15;20.30;99.90
56076;DHT22;41951;49.022;12.066;2022-09-03T14:28:47;20.30;99.90
56076;DHT22;41951;49.022;12.066;2022-09-03T14:34:06;20.10;99.90
56076;DHT22;41951;49.022;12.066;2022-09-03T14:36:54;20.10;99.90
56076;DHT22;41951;49.022;12.066;2022-09-03T14:56:24;20.20;99.90
56076;DHT22;41951;49.022;12.066;2022-09-03T14:59:07;20.20;99.90
56076;DHT22;41951;49.022;12.066;2022-09-03T15:01:36;20.20;99.90
56076;DHT22;41951;49.022;12.066;2022-09-03T15:09:31;20.20;99.90
56076;DHT22;41951;49.022;12.066;2022-09-03T15:12:09;20.10;99.90
56076;DHT22;41951;49.022;12.066;2022-09-03T15:20:06;20.10;99.90
56076;DHT22;41951;49.022;12.066;2022-09-03T15:23:03;20.10;99.90
56076;DHT22;41951;49.022;12.066;2022-09-03T15:31:22;20.10;99.90
56076;DHT22;41951;49.022;12.066;2022-09-03T15:33:58;20.10;99.90
56076;DHT22;41951;49.022;12.066;2022-09-03T15:36:45;20.20;99.90
56076;DHT22;41951;49.022;12.066;2022-09-03T15:39:24;20.20;99.90
56076;DHT22;41951;49.022;12.066;2022-09-03T15:41:59;20.30;99.90
56076;DHT22;41951;49.022;12.066;2022-09-03T15:53:03;21.40;99.90
56076;DHT22;41951;49.022;12.066;2022-09-03T15:55:38;21.60;99.90
56076;DHT22;41951;49.022;12.066;2022-09-03T15:58:11;21.60;99.90
56076;DHT22;41951;49.022;12.066;2022-09-03T16:00:56;21.50;99.90
56076;DHT22;41951;49.022;12.066;2022-09-03T16:03:59;21.40;99.90
56076;DHT22;41951;49.022;12.066;2022-09-03T16:06:35;21.20;99.90
56076;DHT22;41951;49.022;12.066;2022-09-03T16:15:23;20.70;99.90
56076;DHT22;41951;49.022;12.066;2022-09-03T16:23:27;20.40;99.90
56076;DHT22;41951;49.022;12.066;2022-09-03T16:26:12;20.30;99.90
56076;DHT22;41951;49.022;12.066;2022-09-03T16:28:51;20.30;99.90
56076;DHT22;41951;49.022;12.066;2022-09-03T16:42:57;20.30;99.90
56076;DHT22;41951;49.022;12.066;2022-09-03T16:45:33;20.20;99.90
56076;DHT22;41951;49.022;12.066;2022-09-03T16:51:15;20.20;99.90
56076;DHT22;41951;49.022;12.066;2022-09-03T16:54:09;20.10;99.90
56076;DHT22;41951;49.022;12.066;2022-09-03T16:56:53;20.00;99.90
56076;DHT22;41951;49.022;12.066;2022-09-03T17:07:46;19.90;99.90
56076;DHT22;41951;49.022;12.066;2022-09-03T17:10:45;19.90;99.90
56076;DHT22;41951;49.022;12.066;2022-09-03T17:16:18;19.90;99.90
56076;DHT22;41951;49.022;12.066;2022-09-03T17:18:50;19.90;99.90
56076;DHT22;41951;49.022;12.066;2022-09-03T17:21:37;19.80;99.90
56076;DHT22;41951;49.022;12.066;2022-09-03T17:32:23;19.80;99.90
56076;DHT22;41951;49.022;12.066;2022-09-03T17:37:58;19.70;99.90
56076;DHT22;41951;49.022;12.066;2022-09-03T17:43:49;19.70;99.90
56076;DHT22;41951;49.022;12.066;2022-09-03T17:46:42;19.60;99.90
56076;DHT22;41951;49.022;12.066;2022-09-03T17:49:23;19.60;99.90
56076;DHT22;41951;49.022;12.066;2022-09-03T17:57:31;19.50;99.90
56076;DHT22;41951;49.022;12.066;2022-09-03T18:00:23;19.40;99.90
56076;DHT22;41951;49.022;12.066;2022-09-03T18:05:31;19.40;99.90
56076;DHT22;41951;49.022;12.066;2022-09-03T18:08:04;19.20;99.90
56076;DHT22;41951;49.022;12.066;2022-09-03T18:13:50;19.10;99.90
56076;DHT22;41951;49.022;12.066;2022-09-03T18:18:50;19.00;99.90
56076;DHT22;41951;49.022;12.066;2022-09-03T18:21:21;18.90;99.90
56076;DHT22;41951;49.022;12.066;2022-09-03T18:27:03;18.60;99.90
56076;DHT22;41951;49.022;12.066;2022-09-03T18:30:00;18.60;99.90
56076;DHT22;41951;49.022;12.066;2022-09-03T18:32:45;18.50;99.90
56076;DHT22;41951;49.022;12.066;2022-09-03T18:35:30;18.40;99.90
56076;DHT22;41951;49.022;12.066;2022-09-03T18:38:25;18.30;99.90
56076;DHT22;41951;49.022;12.066;2022-09-03T18:53:27;17.90;99.90
56076;DHT22;41951;49.022;12.066;2022-09-03T18:56:36;17.90;99.90
56076;DHT22;41951;49.022;12.066;2022-09-03T19:02:26;17.80;99.90
56076;DHT22;41951;49.022;12.066;2022-09-03T19:05:18;17.80;99.90
56076;DHT22;41951;49.022;12.066;2022-09-03T19:08:27;17.70;99.90
56076;DHT22;41951;49.022;12.066;2022-09-03T19:14:27;17.70;99.90
56076;DHT22;41951;49.022;12.066;2022-09-03T19:17:20;17.70;99.90
56076;DHT22;41951;49.022;12.066;2022-09-03T19:20:28;17.70;99.90
56076;DHT22;41951;49.022;12.066;2022-09-03T19:23:13;17.70;99.90
56076;DHT22;41951;49.022;12.066;2022-09-03T19:26:29;17.70;99.90
56076;DHT22;41951;49.022;12.066;2022-09-03T19:41:49;17.30;99.90
56076;DHT22;41951;49.022;12.066;2022-09-03T19:45:28;17.30;99.90
56076;DHT22;41951;49.022;12.066;2022-09-03T19:48:27;17.30;99.90
56076;DHT22;41951;49.022;12.066;2022-09-03T19:51:42;17.30;99.90
56076;DHT22;41951;49.022;12.066;2022-09-03T19:54:28;17.40;99.90
56076;DHT22;41951;49.022;12.066;2022-09-03T19:57:15;17.40;99.90
56076;DHT22;41951;49.022;12.066;2022-09-03T20:00:03;17.30;99.90
56076;DHT22;41951;49.022;12.066;2022-09-03T20:02:47;17.20;99.90
56076;DHT22;41951;49.022;12.066;2022-09-03T20:05:32;17.20;99.90
56076;DHT22;41951;49.022;12.066;2022-09-03T20:08:19;17.20;99.90
56076;DHT22;41951;49.022;12.066;2022-09-03T20:11:10;17.20;99.90
56076;DHT22;41951;49.022;12.066;2022-09-03T20:13:40;17.20;99.90
56076;DHT22;41951;49.022;12.066;2022-09-03T20:16:53;17.10;99.90
56076;DHT22;41951;49.022;12.066;2022-09-03T20:20:06;17.10;99.90
56076;DHT22;41951;49.022;12.066;2022-09-03T20:30:17;17.10;99.90
56076;DHT22;41951;49.022;12.066;2022-09-03T20:41:54;17.10;99.90
56076;DHT22;41951;49.022;12.066;2022-09-03T20:53:00;17.00;99.90
56076;DHT22;41951;49.022;12.066;2022-09-03T20:55:41;17.00;99.90
56076;DHT22;41951;49.022;12.066;2022-09-03T21:01:27;16.90;99.90
56076;DHT22;41951;49.022;12.066;2022-09-03T21:16:55;16.90;99.90
56076;DHT22;41951;49.022;12.066;2022-09-03T21:25:13;16.90;99.90
56076;DHT22;41951;49.022;12.066;2022-09-03T21:30:16;16.90;99.90
56076;DHT22;41951;49.022;12.066;2022-09-03T21:33:05;16.90;99.90
56076;DHT22;41951;49.022;12.066;2022-09-03T21:35:38;16.80;99.90
56076;DHT22;41951;49.022;12.066;2022-09-03T21:41:01;16.70;99.90
56076;DHT22;41951;49.022;12.066;2022-09-03T21:43:34;16.70;99.90
56076;DHT22;41951;49.022;12.066;2022-09-03T21:46:37;17.00;99.90
56076;DHT22;41951;49.022;12.066;2022-09-03T21:49:09;16.50;99.90